Time,TemperatureF,DewpointF,PressureIn,WindDirection,WindDirectionDegrees,WindSpeedMPH,WindSpeedGustMPH,Humidity,HourlyPrecipIn,Conditions,Clouds,dailyrainin,SoftwareType,DateUTC
2013-09-03 00:00:00,75.0,43.2,0.00,SW,218,0.0,4.0,32,0.00,,---,0.00,VWS V13.01,2013-09-03 07:00:00,
2013-09-03 00:20:00,74.5,42.7,0.00,SW,223,0.0,0.0,32,0.00,,---,0.00,VWS V13.01,2013-09-03 07:20:00,
2013-09-03 00:40:00,74.1,42.4,0.00,SW,222,0.0,0.0,32,0.00,,---,0.00,VWS V13.01,2013-09-03 07:40:00,
2013-09-03 01:00:00,73.6,43.5,0.00,SW,228,3.1,4.0,34,0.00,,---,0.00,VWS V13.01,2013-09-03 08:00:00,
2013-09-03 01:20:00,72.9,43.6,0.00,SW,229,0.0,3.6,35,0.00,,---,0.00,VWS V13.01,2013-09-03 08:20:00,
2013-09-03 01:40:00,72.5,44.1,0.00,SW,224,0.0,0.0,36,0.00,,---,0.00,VWS V13.01,2013-09-03 08:40:00,
2013-09-03 02:00:00,72.0,45.0,0.00,SW,222,0.0,0.0,38,0.00,,---,0.00,VWS V13.01,2013-09-03 09:00:00,
2013-09-03 02:20:00,71.6,46.7,0.00,SW,222,0.0,0.0,41,0.00,,---,0.00,VWS V13.01,2013-09-03 09:20:00,
2013-09-03 02:40:00,71.2,48.2,0.00,SW,216,0.0,0.0,44,0.00,,---,0.00,VWS V13.01,2013-09-03 09:40:00,
2013-09-03 03:00:00,70.7,47.7,0.00,SW,219,3.1,4.0,44,0.00,,---,0.00,VWS V13.01,2013-09-03 10:00:00,
2013-09-03 03:20:00,70.7,47.7,0.00,SW,217,4.0,4.5,44,0.00,,---,0.00,VWS V13.01,2013-09-03 10:20:00,
2013-09-03 03:40:00,70.2,47.2,0.00,SW,218,3.6,4.9,44,0.00,,---,0.00,VWS V13.01,2013-09-03 10:40:00,
2013-09-03 04:00:00,70.3,46.2,0.00,SW,216,3.6,4.0,42,0.00,,---,0.00,VWS V13.01,2013-09-03 11:00:00,
2013-09-03 04:20:00,70.0,45.9,0.00,SW,217,4.0,5.4,42,0.00,,---,0.00,VWS V13.01,2013-09-03 11:20:00,
2013-09-03 04:40:00,69.6,46.8,0.00,SW,221,0.0,4.0,44,0.00,,---,0.00,VWS V13.01,2013-09-03 11:40:00,
2013-09-03 05:00:00,69.3,47.0,0.00,SW,223,0.0,0.0,45,0.00,,---,0.00,VWS V13.01,2013-09-03 12:00:00,
2013-09-03 05:20:00,68.9,46.7,0.00,SW,222,0.0,0.0,45,0.00,,---,0.00,VWS V13.01,2013-09-03 12:20:00,
2013-09-03 05:40:00,68.7,46.5,0.00,SW,223,0.0,0.0,45,0.00,,---,0.00,VWS V13.01,2013-09-03 12:40:00,
2013-09-03 06:00:00,68.5,47.0,0.00,SSW,211,4.5,4.5,46,0.00,,---,0.00,VWS V13.01,2013-09-03 13:00:00,
2013-09-03 06:20:00,68.4,47.9,0.00,SW,215,3.6,5.8,48,0.00,,---,0.00,VWS V13.01,2013-09-03 13:20:00,
2013-09-03 06:40:00,68.7,48.3,0.00,WSW,240,3.6,4.9,48,0.00,,---,0.00,VWS V13.01,2013-09-03 13:40:00,
2013-09-03 07:00:00,69.8,48.1,0.00,SW,224,0.0,5.4,46,0.00,,---,0.00,VWS V13.01,2013-09-03 14:00:00,
2013-09-03 07:20:00,71.6,49.8,0.00,SW,224,0.0,0.0,46,0.00,,---,0.00,VWS V13.01,2013-09-03 14:20:00,
2013-09-03 07:40:00,74.5,49.3,0.00,ESE,117,0.0,0.0,41,0.00,,---,0.00,VWS V13.01,2013-09-03 14:40:00,
2013-09-03 08:00:00,75.2,47.2,0.00,SE,128,4.9,5.8,37,0.00,,---,0.00,VWS V13.01,2013-09-03 15:00:00,
2013-09-03 08:20:00,76.6,45.4,0.00,SE,130,0.0,4.9,33,0.00,,---,0.00,VWS V13.01,2013-09-03 15:20:00,
2013-09-03 08:40:00,77.9,44.9,0.00,WSW,243,3.1,5.8,31,0.00,,---,0.00,VWS V13.01,2013-09-03 15:40:00,
2013-09-03 09:00:00,79.3,45.2,0.00,SE,130,4.0,4.0,30,0.00,,---,0.00,VWS V13.01,2013-09-03 16:00:00,
2013-09-03 09:20:00,81.3,42.2,0.00,SSE,155,2.7,7.6,25,0.00,,---,0.00,VWS V13.01,2013-09-03 16:20:00,
2013-09-03 09:40:00,82.8,38.9,0.00,SSE,168,4.0,8.3,21,0.00,,---,0.00,VWS V13.01,2013-09-03 16:40:00,
2013-09-03 10:00:00,83.5,39.5,0.00,SE,136,3.1,11.0,21,0.00,,---,0.00,VWS V13.01,2013-09-03 17:00:00,
2013-09-03 10:20:00,84.0,39.9,0.00,SE,135,7.6,8.7,21,0.00,,---,0.00,VWS V13.01,2013-09-03 17:20:00,
2013-09-03 10:40:00,84.6,39.1,0.00,SE,143,5.4,10.1,20,0.00,,---,0.00,VWS V13.01,2013-09-03 17:40:00,
2013-09-03 11:00:00,85.8,40.2,0.00,SSE,157,6.3,11.0,20,0.00,,---,0.00,VWS V13.01,2013-09-03 18:00:00,
2013-09-03 11:20:00,86.5,39.4,0.00,SE,133,5.4,10.1,19,0.00,,---,0.00,VWS V13.01,2013-09-03 18:20:00,
2013-09-03 11:40:00,86.4,39.3,0.00,SSW,208,7.6,7.6,19,0.00,,---,0.00,VWS V13.01,2013-09-03 18:40:00,
2013-09-03 12:00:00,87.1,39.9,0.00,SE,138,13.6,13.6,19,0.00,,---,0.00,VWS V13.01,2013-09-03 19:00:00,
2013-09-03 12:20:00,87.3,40.0,0.00,South,170,4.0,14.5,19,0.00,,---,0.00,VWS V13.01,2013-09-03 19:20:00,
2013-09-03 12:40:00,86.5,39.4,0.00,SE,135,8.7,17.0,19,0.00,,---,0.00,VWS V13.01,2013-09-03 19:40:00,
2013-09-03 13:00:00,88.2,39.4,0.00,ESE,121,11.0,12.3,18,0.00,,---,0.00,VWS V13.01,2013-09-03 20:00:00,
2013-09-03 13:20:00,89.6,40.5,0.00,SE,139,3.6,13.6,18,0.00,,---,0.00,VWS V13.01,2013-09-03 20:20:00,
2013-09-03 13:40:00,90.3,39.6,0.00,South,190,4.9,10.1,17,0.00,,---,0.00,VWS V13.01,2013-09-03 20:40:00,
2013-09-03 14:00:00,88.3,39.5,0.00,SE,142,4.0,5.8,18,0.00,,---,0.00,VWS V13.01,2013-09-03 21:00:00,
2013-09-03 14:20:00,87.8,39.1,0.00,SSE,161,3.6,5.8,18,0.00,,---,0.00,VWS V13.01,2013-09-03 21:20:00,
2013-09-03 14:40:00,87.4,38.8,0.00,SSE,160,2.7,8.7,18,0.00,,---,0.00,VWS V13.01,2013-09-03 21:40:00,
2013-09-03 15:00:00,86.9,38.3,0.00,SE,142,2.7,8.7,18,0.00,,---,0.00,VWS V13.01,2013-09-03 22:00:00,
2013-09-03 15:20:00,87.3,38.6,0.00,SE,143,0.0,5.4,18,0.00,,---,0.00,VWS V13.01,2013-09-03 22:20:00,
2013-09-03 15:40:00,88.7,35.2,0.00,SE,136,0.0,6.3,15,0.00,,---,0.00,VWS V13.01,2013-09-03 22:40:00,
2013-09-03 16:00:00,89.1,40.1,0.00,SW,223,3.1,5.8,18,0.00,,---,0.00,VWS V13.01,2013-09-03 23:00:00,
2013-09-03 16:20:00,88.0,39.2,0.00,SW,216,0.0,4.5,18,0.00,,---,0.00,VWS V13.01,2013-09-03 23:20:00,
2013-09-03 16:40:00,86.9,38.3,0.00,SW,219,0.0,4.0,18,0.00,,---,0.00,VWS V13.01,2013-09-03 23:40:00,
2013-09-03 17:00:00,86.4,37.9,0.00,WNW,302,0.0,3.6,18,0.00,,---,0.00,VWS V13.01,2013-09-04 00:00:00,
2013-09-03 17:20:00,84.9,38.1,0.00,ESE,111,3.1,4.0,19,0.00,,---,0.00,VWS V13.01,2013-09-04 00:20:00,
2013-09-03 17:40:00,82.2,37.2,0.00,SSE,151,0.0,12.3,20,0.00,,---,0.00,VWS V13.01,2013-09-04 00:40:00,
2013-09-03 18:00:00,81.3,38.9,0.00,North,353,5.4,13.2,22,0.00,,---,0.00,VWS V13.01,2013-09-04 01:00:00,
2013-09-03 18:20:00,79.7,40.8,0.00,NE,41,8.1,11.0,25,0.00,,---,0.00,VWS V13.01,2013-09-04 01:20:00,
2013-09-03 18:40:00,78.6,41.9,0.00,NNW,342,0.0,8.3,27,0.00,,---,0.00,VWS V13.01,2013-09-04 01:40:00,
2013-09-03 19:00:00,78.1,40.4,0.00,NE,54,0.0,6.3,26,0.00,,---,0.00,VWS V13.01,2013-09-04 02:00:00,
2013-09-03 19:20:00,77.0,39.5,0.00,NE,51,8.1,12.3,26,0.00,,---,0.00,VWS V13.01,2013-09-04 02:20:00,
2013-09-03 19:40:00,76.1,43.3,0.00,WNW,293,4.0,13.2,31,0.00,,---,0.00,VWS V13.01,2013-09-04 02:40:00,
2013-09-03 20:00:00,75.0,44.0,0.00,SW,215,4.0,6.3,33,0.00,,---,0.00,VWS V13.01,2013-09-04 03:00:00,
2013-09-03 20:20:00,75.0,44.0,0.00,SSW,211,0.0,4.9,33,0.00,,---,0.00,VWS V13.01,2013-09-04 03:20:00,
2013-09-03 20:40:00,74.8,44.6,0.00,North,2,4.0,4.9,34,0.00,,---,0.00,VWS V13.01,2013-09-04 03:40:00,
2013-09-03 21:00:00,74.7,44.5,0.00,ENE,63,0.0,6.3,34,0.00,,---,0.00,VWS V13.01,2013-09-04 04:00:00,
2013-09-03 21:20:00,73.2,50.0,0.00,SSW,210,8.1,8.7,44,0.00,,---,0.00,VWS V13.01,2013-09-04 04:20:00,
2013-09-03 21:40:00,72.5,47.5,0.00,SSW,208,6.3,14.5,41,0.00,,---,0.00,VWS V13.01,2013-09-04 04:40:00,
2013-09-03 22:00:00,72.3,46.0,0.00,SW,225,0.0,6.3,39,0.00,,---,0.00,VWS V13.01,2013-09-04 05:00:00,
2013-09-03 22:20:00,72.0,47.0,0.00,NNE,21,0.0,4.0,41,0.00,,---,0.00,VWS V13.01,2013-09-04 05:20:00,
2013-09-03 22:40:00,71.1,48.7,0.00,NNE,30,0.0,5.8,45,0.00,,---,0.00,VWS V13.01,2013-09-04 05:40:00,
2013-09-03 23:00:00,70.5,50.5,0.00,NNE,30,0.0,0.0,49,0.00,,---,0.00,VWS V13.01,2013-09-04 06:00:00,
2013-09-03 23:20:00,70.0,52.1,0.00,NNE,30,0.0,0.0,53,0.00,,---,0.00,VWS V13.01,2013-09-04 06:20:00,
2013-09-03 23:40:00,69.6,51.2,0.00,NNE,30,0.0,0.0,52,0.00,,---,0.00,VWS V13.01,2013-09-04 06:40:00,